createdAt,value
2023-02-26T00:03:06.906Z,20.80
2023-02-26T00:08:09.986Z,20.80
2023-02-26T00:13:13.306Z,20.75
2023-02-26T00:18:18.063Z,20.78
2023-02-26T00:23:21.259Z,20.77
2023-02-26T00:28:24.481Z,20.79
2023-02-26T00:33:29.559Z,20.76
2023-02-26T00:38:33.403Z,20.79
2023-02-26T00:43:36.806Z,20.74
2023-02-26T00:48:47.099Z,20.75
2023-02-26T00:53:52.951Z,20.79
2023-02-26T00:58:55.738Z,20.77
2023-02-26T01:04:00.328Z,20.75
2023-02-26T01:09:06.592Z,20.79
2023-02-26T01:14:09.848Z,20.78
2023-02-26T01:19:19.477Z,20.78
2023-02-26T01:24:22.338Z,20.79
2023-02-26T01:29:25.504Z,20.75
2023-02-26T01:34:33.587Z,20.69
2023-02-26T01:39:39.798Z,20.68
2023-02-26T01:44:43.672Z,20.62
2023-02-26T01:49:48.878Z,20.54
2023-02-26T01:54:51.644Z,20.52
2023-02-26T01:59:54.475Z,20.43
2023-02-26T02:05:02.425Z,20.38
2023-02-26T02:10:05.821Z,20.33
2023-02-26T02:15:10.822Z,20.26
2023-02-26T02:20:27.389Z,20.22
2023-02-26T02:26:10.921Z,20.16
2023-02-26T02:31:16.760Z,20.03
2023-02-26T02:36:21.646Z,19.94
2023-02-26T02:41:26.526Z,19.84
2023-02-26T02:46:31.986Z,19.74
2023-02-26T02:51:37.672Z,19.68
2023-02-26T02:56:43.713Z,19.63
2023-02-26T03:01:49.588Z,19.55
2023-02-26T03:06:52.442Z,19.50
2023-02-26T03:11:55.216Z,19.46
2023-02-26T03:17:13.507Z,19.39
2023-02-26T03:22:21.618Z,19.39
2023-02-26T03:27:48.794Z,19.32
2023-02-26T03:32:57.835Z,19.32
2023-02-26T03:38:02.902Z,19.29
2023-02-26T03:43:07.401Z,19.27
2023-02-26T03:48:12.677Z,19.27
2023-02-26T03:53:17.242Z,19.29
2023-02-26T03:58:23.631Z,19.23
2023-02-26T04:03:46.624Z,19.14
2023-02-26T04:08:49.406Z,19.15
2023-02-26T04:13:52.225Z,19.11
2023-02-26T04:18:56.803Z,19.12
2023-02-26T04:23:59.797Z,19.13
2023-02-26T04:29:02.769Z,19.14
2023-02-26T04:34:07.358Z,19.14
2023-02-26T04:39:11.009Z,19.16
2023-02-26T04:44:13.976Z,19.19
2023-02-26T04:49:19.350Z,19.20
2023-02-26T04:54:22.199Z,19.23
2023-02-26T04:59:25.084Z,19.27
2023-02-26T05:04:29.456Z,19.29
2023-02-26T05:09:35.381Z,19.33
2023-02-26T05:14:38.535Z,19.34
2023-02-26T05:19:42.619Z,19.39
2023-02-26T05:24:46.141Z,19.39
2023-02-26T05:29:48.909Z,19.47
2023-02-26T05:34:53.137Z,19.54
2023-02-26T05:39:56.056Z,19.58
2023-02-26T05:44:59.036Z,19.64
2023-02-26T05:50:03.162Z,19.58
2023-02-26T05:55:07.244Z,19.63
2023-02-26T06:00:11.241Z,19.62
2023-02-26T06:05:18.144Z,19.62
2023-02-26T06:10:21.058Z,19.52
2023-02-26T06:15:24.040Z,19.46
2023-02-26T06:20:28.167Z,19.44
2023-02-26T06:25:31.189Z,19.36
2023-02-26T06:30:33.996Z,19.34
2023-02-26T06:35:38.235Z,19.27
2023-02-26T06:40:41.315Z,19.22
2023-02-26T06:45:44.149Z,19.19
2023-02-26T06:50:48.377Z,19.18
2023-02-26T06:55:51.905Z,19.13
2023-02-26T07:00:54.899Z,19.12
2023-02-26T07:06:03.540Z,19.11
2023-02-26T07:11:16.863Z,19.07
2023-02-26T07:16:19.685Z,19.06
2023-02-26T07:21:24.034Z,19.03
2023-02-26T07:26:27.033Z,19.03
2023-02-26T07:31:30.307Z,19.02
2023-02-26T07:36:34.470Z,19.01
2023-02-26T07:41:37.322Z,19.02
2023-02-26T07:46:40.123Z,19.04
2023-02-26T07:51:45.945Z,19.05
2023-02-26T07:56:48.867Z,19.04
2023-02-26T08:01:51.778Z,17.13
2023-02-26T08:06:57.390Z,15.02
2023-02-26T08:12:00.531Z,15.57
2023-02-26T08:17:03.407Z,16.68
2023-02-26T08:22:07.551Z,17.52
2023-02-26T08:27:12.151Z,18.08
2023-02-26T08:32:16.453Z,18.52
2023-02-26T08:37:22.661Z,18.88
2023-02-26T08:42:25.536Z,19.11
2023-02-26T08:47:29.331Z,19.30
2023-02-26T08:52:33.857Z,19.47
2023-02-26T08:57:36.654Z,19.63
2023-02-26T09:02:39.699Z,19.74
2023-02-26T09:07:43.956Z,19.89
2023-02-26T09:12:46.742Z,19.96
2023-02-26T09:17:49.727Z,20.05
2023-02-26T09:22:54.052Z,20.13
2023-02-26T09:27:58.649Z,20.18
2023-02-26T09:33:01.630Z,20.23
2023-02-26T09:38:05.715Z,20.29
2023-02-26T09:43:26.532Z,20.32
2023-02-26T09:48:29.476Z,20.33
2023-02-26T09:53:35.184Z,20.40
2023-02-26T09:58:39.260Z,20.44
2023-02-26T10:03:52.557Z,20.50
2023-02-26T10:09:11.420Z,20.53
2023-02-26T10:14:17.346Z,20.61
2023-02-26T10:19:21.134Z,20.66
2023-02-26T10:24:26.239Z,20.74
2023-02-26T10:29:33.030Z,20.79
2023-02-26T10:34:37.590Z,20.82
2023-02-26T10:39:44.816Z,20.85
2023-02-26T10:44:51.022Z,20.87
2023-02-26T10:49:55.541Z,20.87
2023-02-26T10:55:07.408Z,20.91
2023-02-26T11:00:16.069Z,20.92
2023-02-26T11:05:20.098Z,20.96
2023-02-26T11:10:25.881Z,20.91
2023-02-26T11:15:29.817Z,21.00
2023-02-26T11:20:36.074Z,21.04
2023-02-26T11:25:40.234Z,21.03
2023-02-26T11:30:44.137Z,21.02
2023-02-26T11:35:47.546Z,21.03
2023-02-26T11:40:53.850Z,21.02
2023-02-26T11:45:58.740Z,21.03
2023-02-26T11:51:02.199Z,21.03
2023-02-26T11:56:10.545Z,21.04
2023-02-26T12:01:16.631Z,21.04
2023-02-26T12:06:20.379Z,20.97
2023-02-26T12:12:10.307Z,20.58
2023-02-26T12:17:22.832Z,20.09
2023-02-26T12:22:33.618Z,18.62
2023-02-26T12:27:47.353Z,19.76
2023-02-26T12:33:06.355Z,20.15
2023-02-26T12:38:22.729Z,20.37
2023-02-26T12:43:33.615Z,20.50
2023-02-26T12:49:04.280Z,20.56
2023-02-26T12:54:28.104Z,20.59
2023-02-26T12:59:40.037Z,20.65
2023-02-26T13:04:59.819Z,20.66
2023-02-26T13:10:04.669Z,20.72
2023-02-26T13:15:20.625Z,20.75
2023-02-26T13:20:24.861Z,20.77
2023-02-26T13:25:31.901Z,20.78
2023-02-26T13:30:39.673Z,20.79
2023-02-26T13:35:43.517Z,20.82
2023-02-26T13:40:54.720Z,20.86
2023-02-26T13:46:03.718Z,20.90
2023-02-26T13:51:08.831Z,20.93
2023-02-26T13:56:15.107Z,21.20
2023-02-26T14:01:20.217Z,21.45
2023-02-26T14:06:25.616Z,21.42
2023-02-26T14:11:47.044Z,21.38
2023-02-26T14:16:54.383Z,21.34
2023-02-26T14:21:58.945Z,21.31
2023-02-26T14:27:27.149Z,21.28
2023-02-26T14:32:33.331Z,21.29
2023-02-26T14:37:38.089Z,21.27
2023-02-26T14:42:43.735Z,21.21
2023-02-26T14:47:48.675Z,21.24
2023-02-26T14:53:27.894Z,21.23
2023-02-26T14:59:06.144Z,21.23
2023-02-26T15:04:16.276Z,21.22
2023-02-26T15:09:20.217Z,21.21
2023-02-26T15:14:35.371Z,21.20
2023-02-26T15:19:47.485Z,21.22
2023-02-26T15:24:50.404Z,21.20
2023-02-26T15:29:53.793Z,21.24
2023-02-26T15:35:00.659Z,21.24
2023-02-26T15:40:05.725Z,21.24
2023-02-26T15:45:13.610Z,21.26
2023-02-26T15:50:18.263Z,21.25
2023-02-26T15:55:21.058Z,21.27
2023-02-26T16:00:25.637Z,20.83
2023-02-26T16:05:30.123Z,20.91
2023-02-26T16:10:34.150Z,21.07
2023-02-26T16:15:38.323Z,21.26
2023-02-26T16:20:43.655Z,21.43
2023-02-26T16:25:52.905Z,21.37
2023-02-26T16:30:57.406Z,21.30
2023-02-26T16:36:06.292Z,21.27
2023-02-26T16:41:10.887Z,21.28
2023-02-26T16:46:16.530Z,21.20
2023-02-26T16:51:21.557Z,21.25
2023-02-26T16:56:26.388Z,21.21
2023-02-26T17:01:29.314Z,21.14
2023-02-26T17:06:38.337Z,21.13
2023-02-26T17:11:44.536Z,21.08
2023-02-26T17:16:48.450Z,21.03
2023-02-26T17:21:54.325Z,20.97
2023-02-26T17:26:57.115Z,20.88
2023-02-26T17:32:00.037Z,20.85
2023-02-26T17:37:07.589Z,20.86
2023-02-26T17:42:12.009Z,20.82
2023-02-26T17:47:16.498Z,20.77
2023-02-26T17:52:20.697Z,20.70
2023-02-26T17:57:23.670Z,20.69
2023-02-26T18:02:27.127Z,20.68
2023-02-26T18:07:31.301Z,20.66
2023-02-26T18:12:34.160Z,20.73
2023-02-26T18:17:36.964Z,20.70
2023-02-26T18:22:41.329Z,20.74
2023-02-26T18:27:44.318Z,20.81
2023-02-26T18:32:47.155Z,20.81
2023-02-26T18:37:51.602Z,20.87
2023-02-26T18:42:54.490Z,20.88
2023-02-26T18:47:57.261Z,20.81
2023-02-26T18:53:01.423Z,20.88
2023-02-26T18:58:04.661Z,20.86
2023-02-26T19:03:09.152Z,20.85
2023-02-26T19:08:13.273Z,20.94
2023-02-26T19:13:16.095Z,21.03
2023-02-26T19:18:18.929Z,21.01
2023-02-26T19:23:23.960Z,21.04
2023-02-26T19:28:26.705Z,21.05
2023-02-26T19:33:29.469Z,21.14
2023-02-26T19:38:33.628Z,21.10
2023-02-26T19:43:36.531Z,21.08
2023-02-26T19:48:39.363Z,21.14
2023-02-26T19:53:43.451Z,21.08
2023-02-26T19:58:46.222Z,21.06
2023-02-26T20:03:49.195Z,21.06
2023-02-26T20:08:53.489Z,21.09
2023-02-26T20:13:56.455Z,21.02
2023-02-26T20:18:59.918Z,21.02
2023-02-26T20:24:05.159Z,20.99
2023-02-26T20:29:08.920Z,20.96
2023-02-26T20:34:12.144Z,21.00
2023-02-26T20:39:17.843Z,21.02
2023-02-26T20:44:20.728Z,21.02
2023-02-26T20:49:24.787Z,20.99
2023-02-26T20:54:28.968Z,21.00
2023-02-26T20:59:31.868Z,21.00
2023-02-26T21:04:34.650Z,21.06
2023-02-26T21:09:38.771Z,21.04
2023-02-26T21:14:41.596Z,21.00
2023-02-26T21:19:44.527Z,21.03
2023-02-26T21:24:48.685Z,20.98
2023-02-26T21:29:51.474Z,21.00
2023-02-26T21:34:54.224Z,20.96
2023-02-26T21:39:58.356Z,20.98
2023-02-26T21:45:01.211Z,20.96
2023-02-26T21:50:04.196Z,20.96
2023-02-26T21:55:09.041Z,20.96
2023-02-26T22:00:12.903Z,20.97
2023-02-26T22:05:15.643Z,20.96
2023-02-26T22:10:20.120Z,20.93
2023-02-26T22:15:23.147Z,20.89
2023-02-26T22:20:25.976Z,20.83
2023-02-26T22:25:31.090Z,20.76
2023-02-26T22:30:33.923Z,20.71
2023-02-26T22:35:36.701Z,20.70
2023-02-26T22:40:40.827Z,20.69
2023-02-26T22:45:43.691Z,20.62
2023-02-26T22:50:46.525Z,20.62
2023-02-26T22:55:50.821Z,20.61
2023-02-26T23:00:59.614Z,20.60
2023-02-26T23:06:02.358Z,20.60
2023-02-26T23:11:06.709Z,20.64
2023-02-26T23:16:10.568Z,20.63
2023-02-26T23:21:13.399Z,20.63
2023-02-26T23:26:18.460Z,20.62
2023-02-26T23:31:21.433Z,20.60
2023-02-26T23:36:24.436Z,20.57
2023-02-26T23:41:28.887Z,20.54
2023-02-26T23:46:31.705Z,20.52
2023-02-26T23:51:34.509Z,20.49
2023-02-26T23:56:38.664Z,20.40
